Time;durP1;ratioP1;P1;durP2;ratioP2;P2;SDS_P1;SDS_P2;PMS_P1;PMS_P2;Temp;Humidity;BMP_temperature;BMP_pressure;BME280_temperature;BME280_humidity;BME280_pressure;Samples;Min_cycle;Max_cycle;Signal;HPM_P1;HPM_P2
2023/02/08 00:01:21;;;;;;;21.33;13.73;;;;;;;14.38;35.54;102532.03;5113834;28;20036;-54
2023/02/08 00:03:49;;;;;;;18.52;13.00;;;;;;;14.35;35.96;102539.31;5116374;28;20094;-53
2023/02/08 00:06:18;;;;;;;21.48;13.98;;;;;;;14.30;36.46;102540.38;5116394;28;20108;-51
2023/02/08 00:08:46;;;;;;;22.05;13.88;;;;;;;14.27;36.11;102539.63;5116205;28;20047;-54
2023/02/08 00:11:15;;;;;;;21.48;14.52;;;;;;;14.24;36.25;102545.13;5116182;28;20097;-51
2023/02/08 00:13:43;;;;;;;23.95;15.25;;;;;;;14.20;36.24;102544.38;5117124;28;20039;-54
2023/02/08 00:16:13;;;;;;;22.92;15.18;;;;;;;14.15;36.13;102543.66;5117535;28;20054;-53
2023/02/08 00:18:43;;;;;;;21.42;15.68;;;;;;;14.13;36.50;102534.81;5117535;28;20044;-53
2023/02/08 00:21:17;;;;;;;23.00;13.73;;;;;;;14.09;36.53;102546.59;5116464;28;20051;-52
2023/02/08 00:23:45;;;;;;;21.85;14.57;;;;;;;14.07;36.78;102551.13;5116243;28;20040;-51
2023/02/08 00:26:14;;;;;;;21.35;13.77;;;;;;;14.00;36.43;102542.47;5115934;28;20048;-52
2023/02/08 00:28:42;;;;;;;20.27;13.70;;;;;;;14.01;36.24;102544.22;5116050;28;20036;-51
2023/02/08 00:31:11;;;;;;;20.45;13.75;;;;;;;13.94;36.58;102548.03;5116523;28;20094;-51
2023/02/08 00:33:39;;;;;;;22.08;14.32;;;;;;;13.95;36.18;102546.25;5115970;28;20445;-51
2023/02/08 00:36:11;;;;;;;20.48;13.73;;;;;;;13.93;36.88;102550.78;5115910;28;20044;-52
2023/02/08 00:38:39;;;;;;;21.25;15.45;;;;;;;13.90;36.51;102556.28;5115338;28;20442;-54
2023/02/08 00:41:07;;;;;;;21.30;13.68;;;;;;;13.87;36.97;102551.00;5115572;28;20050;-50
2023/02/08 00:43:35;;;;;;;19.55;14.00;;;;;;;13.84;37.30;102551.13;5115504;28;20052;-50
2023/02/08 00:46:04;;;;;;;21.70;14.52;;;;;;;13.81;37.00;102556.63;5115417;28;20043;-51
2023/02/08 00:48:32;;;;;;;20.42;13.93;;;;;;;13.79;37.01;102563.84;5115541;28;20047;-51
2023/02/08 00:51:02;;;;;;;22.02;14.40;;;;;;;13.75;37.24;102558.59;5115350;28;20048;-52
2023/02/08 00:53:35;;;;;;;20.98;14.32;;;;;;;13.73;36.57;102556.91;5115393;28;20463;-53
2023/02/08 00:56:04;;;;;;;21.52;13.95;;;;;;;13.56;37.00;102529.81;5115421;28;20391;-53
2023/02/08 00:58:33;;;;;;;20.52;14.13;;;;;;;13.67;37.10;102549.06;5115333;28;20122;-53
2023/02/08 01:01:03;;;;;;;21.70;13.77;;;;;;;13.65;37.12;102551.81;5115323;28;20048;-53
2023/02/08 01:03:33;;;;;;;19.88;13.55;;;;;;;13.62;36.98;102551.94;5115225;28;20050;-50
2023/02/08 01:06:02;;;;;;;18.83;13.43;;;;;;;13.60;37.57;102553.78;5114940;28;20123;-53
2023/02/08 01:08:33;;;;;;;21.25;13.32;;;;;;;13.58;37.67;102555.66;5115435;28;20043;-52
2023/02/08 01:11:05;;;;;;;19.83;13.32;;;;;;;13.60;38.04;102551.09;5114976;28;20044;-52
2023/02/08 01:13:33;;;;;;;18.63;13.00;;;;;;;13.65;38.52;102543.78;5114816;28;20069;-53
2023/02/08 01:16:10;;;;;;;20.15;13.27;;;;;;;13.74;38.38;102540.75;5114932;28;20054;-52
2023/02/08 01:18:39;;;;;;;20.50;13.30;;;;;;;13.84;38.47;102540.41;5114794;28;20057;-54
2023/02/08 01:21:10;;;;;;;18.45;12.35;;;;;;;13.95;38.56;102538.19;5114892;28;20100;-54
2023/02/08 01:23:40;;;;;;;21.42;13.52;;;;;;;14.08;38.39;102542.13;5114783;28;20052;-53
2023/02/08 01:26:10;;;;;;;18.30;12.55;;;;;;;14.17;38.28;102533.72;5114721;28;20061;-51
2023/02/08 01:28:38;;;;;;;19.10;13.00;;;;;;;14.28;38.13;102553.00;5114571;28;20052;-50
2023/02/08 01:31:07;;;;;;;17.60;12.02;;;;;;;14.39;37.88;102539.16;5114634;28;20071;-51
2023/02/08 01:33:36;;;;;;;16.95;12.05;;;;;;;14.49;37.98;102545.06;5114586;28;20509;-52
2023/02/08 01:36:05;;;;;;;18.77;12.18;;;;;;;14.61;37.69;102555.31;5114411;28;20404;-53
2023/02/08 01:38:34;;;;;;;16.08;12.00;;;;;;;14.69;37.54;102547.81;5114380;28;20126;-53
2023/02/08 01:41:05;;;;;;;18.48;11.80;;;;;;;14.72;37.40;102552.16;5114416;28;20051;-53
2023/02/08 01:43:35;;;;;;;18.60;12.13;;;;;;;14.76;37.37;102549.28;5114269;28;20054;-52
2023/02/08 01:46:04;;;;;;;17.70;12.38;;;;;;;14.79;37.44;102553.69;5114201;28;20472;-51
2023/02/08 01:48:37;;;;;;;16.50;12.00;;;;;;;14.79;37.30;102549.19;5114217;28;20089;-50
2023/02/08 01:51:09;;;;;;;17.23;12.00;;;;;;;14.78;37.33;102546.56;5114342;28;20130;-54
2023/02/08 01:53:38;;;;;;;17.05;11.77;;;;;;;14.76;37.34;102557.34;5114237;28;20078;-52
2023/02/08 01:56:12;;;;;;;18.23;11.32;;;;;;;14.73;37.36;102553.91;5113906;28;20043;-53
2023/02/08 01:58:45;;;;;;;17.25;11.80;;;;;;;14.70;37.50;102552.25;5113990;28;20048;-53
2023/02/08 02:01:14;;;;;;;17.30;11.77;;;;;;;14.69;37.30;102550.50;5114013;28;20039;-52
2023/02/08 02:03:43;;;;;;;18.02;12.27;;;;;;;14.66;37.43;102547.03;5113874;28;20043;-54
2023/02/08 02:06:14;;;;;;;16.70;11.27;;;;;;;14.62;37.52;102540.06;5113750;28;20100;-52
2023/02/08 02:08:47;;;;;;;16.45;11.63;;;;;;;14.59;37.56;102539.25;5113769;28;20054;-52
2023/02/08 02:11:17;;;;;;;16.75;11.48;;;;;;;14.55;37.51;102540.28;5113642;28;20044;-52
2023/02/08 02:13:49;;;;;;;18.33;12.00;;;;;;;14.52;37.75;102544.94;5113686;28;20054;-52
2023/02/08 02:16:17;;;;;;;18.30;11.80;;;;;;;14.50;37.64;102550.38;5113523;28;20445;-52
2023/02/08 02:18:45;;;;;;;17.70;11.65;;;;;;;14.46;37.71;102540.66;5113644;28;20043;-54
2023/02/08 02:21:39;;;;;;;17.77;11.07;;;;;;;14.43;37.12;102535.41;5113451;28;20051;-52
2023/02/08 02:24:37;;;;;;;17.40;11.13;;;;;;;14.40;37.18;102538.22;5112607;28;20070;-52
2023/02/08 02:27:40;;;;;;;16.48;10.38;;;;;;;14.37;36.73;102534.75;5113438;28;20039;-55
2023/02/08 02:30:55;;;;;;;16.20;10.90;;;;;;;14.33;36.33;102539.38;5113318;28;20054;-52
2023/02/08 02:33:31;;;;;;;;;;;;;;;14.29;36.19;102538.66;5050777;28;20052;-52
2023/02/08 02:36:06;;;;;;;18.10;11.07;;;;;;;14.20;36.30;102530.94;5050400;28;19967;-54
2023/02/08 02:38:48;;;;;;;15.95;11.18;;;;;;;14.21;36.36;102539.88;5084897;28;20055;-54
2023/02/08 02:44:21;;;;;;;17.38;11.10;;;;;;;14.11;36.93;102543.84;5112446;28;20085;-53
2023/02/08 02:46:57;;;;;;;17.58;10.70;;;;;;;14.10;36.85;102556.41;5113140;28;20115;-51
2023/02/08 02:49:34;;;;;;;14.15;9.90;;;;;;;14.06;37.02;102552.06;5112973;28;20052;-51
2023/02/08 02:52:07;;;;;;;15.25;10.07;;;;;;;14.01;36.49;102554.06;5113069;28;20044;-53
2023/02/08 02:54:40;;;;;;;13.55;9.90;;;;;;;13.97;36.78;102561.34;5112822;28;20420;-53
2023/02/08 02:57:12;;;;;;;14.63;10.30;;;;;;;13.95;36.90;102563.22;5112922;28;20044;-52
2023/02/08 02:59:41;;;;;;;16.00;10.65;;;;;;;13.91;37.25;102566.97;5112776;28;20043;-53
2023/02/08 03:02:10;;;;;;;14.50;10.35;;;;;;;13.89;36.62;102565.25;5112727;28;20074;-50
2023/02/08 03:04:51;;;;;;;16.98;10.10;;;;;;;13.85;37.15;102575.22;5113056;28;20054;-52
2023/02/08 03:07:51;;;;;;;14.07;9.88;;;;;;;13.82;36.82;102579.84;5112791;28;20047;-52
2023/02/08 03:10:46;;;;;;;14.95;10.43;;;;;;;13.78;37.05;102572.81;5112862;28;20047;-53
2023/02/08 03:13:25;;;;;;;14.52;9.68;;;;;;;13.74;37.23;102583.66;5112646;28;20400;-52
2023/02/08 03:16:07;;;;;;;15.70;10.00;;;;;;;13.70;37.25;102576.69;5112693;28;20043;-53
2023/02/08 03:18:46;;;;;;;14.50;10.20;;;;;;;13.69;37.05;102587.44;5112675;28;20043;-53
2023/02/08 03:21:20;;;;;;;13.80;9.70;;;;;;;13.63;37.83;102590.34;5112383;28;20511;-53
2023/02/08 03:24:00;;;;;;;13.45;9.15;;;;;;;13.60;37.04;102596.69;5112428;28;20043;-54
2023/02/08 03:26:35;;;;;;;13.88;9.52;;;;;;;13.59;37.28;102589.56;5112540;28;20079;-53
2023/02/08 03:29:11;;;;;;;15.55;9.85;;;;;;;13.53;37.57;102583.56;5112478;28;20089;-52
2023/02/08 03:31:46;;;;;;;13.50;9.32;;;;;;;13.52;37.09;102588.06;5112345;28;20043;-54
2023/02/08 03:34:20;;;;;;;15.02;9.48;;;;;;;13.49;36.46;102588.16;5112147;28;20043;-52
2023/02/08 03:36:55;;;;;;;13.65;9.43;;;;;;;13.49;36.86;102592.63;5112387;28;20046;-54
2023/02/08 03:39:27;;;;;;;14.05;9.43;;;;;;;13.46;36.79;102583.78;5112125;28;20047;-52
2023/02/08 03:41:58;;;;;;;14.25;9.40;;;;;;;13.44;37.06;102592.81;5112338;28;20047;-52
2023/02/08 03:44:33;;;;;;;14.90;8.82;;;;;;;13.40;37.24;102600.06;5112186;28;20127;-52
2023/02/08 03:47:06;;;;;;;14.43;9.68;;;;;;;13.39;37.53;102597.44;5112147;28;20059;-53
2023/02/08 03:49:37;;;;;;;13.35;9.20;;;;;;;13.36;37.72;102608.28;5112340;28;20446;-55
2023/02/08 03:52:10;;;;;;;12.75;8.95;;;;;;;13.34;37.19;102607.47;5112177;28;20055;-52
2023/02/08 03:54:41;;;;;;;;;;;;;;;13.30;37.60;102604.00;5112629;28;20055;-53
2023/02/08 03:57:20;;;;;;;15.77;8.93;;;;;;;13.29;37.40;102599.56;5111970;28;19920;-54
2023/02/08 03:59:56;;;;;;;13.02;8.90;;;;;;;13.26;37.21;102599.69;5112074;28;20101;-52
2023/02/08 04:02:29;;;;;;;13.32;9.20;;;;;;;13.23;37.68;102594.44;5112105;28;20130;-52
2023/02/08 04:04:58;;;;;;;12.70;8.23;;;;;;;13.22;36.77;102599.81;5111921;28;20044;-51
2023/02/08 04:07:28;;;;;;;13.07;8.52;;;;;;;13.16;37.58;102596.41;5112037;28;20103;-54
2023/02/08 04:09:58;;;;;;;13.90;8.85;;;;;;;13.18;37.41;102602.59;5111873;28;20051;-52
2023/02/08 04:12:26;;;;;;;11.35;8.30;;;;;;;13.16;37.32;102601.75;5112099;28;20502;-53
2023/02/08 04:14:54;;;;;;;12.05;8.43;;;;;;;13.15;37.58;102609.84;5111935;28;20050;-52
2023/02/08 04:17:22;;;;;;;13.15;8.52;;;;;;;13.13;38.27;102606.38;5111815;28;20051;-53
2023/02/08 04:19:51;;;;;;;14.30;8.68;;;;;;;13.16;38.25;102619.66;5111911;28;20044;-53
2023/02/08 04:22:19;;;;;;;13.27;8.20;;;;;;;13.21;38.39;102612.34;5111778;28;20100;-52
2023/02/08 04:24:48;;;;;;;12.55;8.10;;;;;;;13.30;38.50;102597.75;5111835;28;20377;-52
2023/02/08 04:27:16;;;;;;;12.70;8.57;;;;;;;13.42;38.58;102608.09;5111664;28;20039;-54
2023/02/08 04:29:45;;;;;;;13.57;9.00;;;;;;;13.54;38.58;102607.66;5111717;28;20046;-52
2023/02/08 04:32:13;;;;;;;11.85;8.10;;;;;;;13.67;38.36;102608.94;5111793;28;20039;-50
2023/02/08 04:34:41;;;;;;;11.40;7.85;;;;;;;13.80;38.18;102597.75;5111661;28;20131;-51
2023/02/08 04:37:09;;;;;;;11.15;7.55;;;;;;;13.89;38.20;102600.13;5111662;28;20044;-51
2023/02/08 04:39:38;;;;;;;12.63;7.65;;;;;;;13.98;38.06;102586.34;5111774;28;20539;-51
2023/02/08 04:42:08;;;;;;;12.02;7.65;;;;;;;14.12;38.00;102600.16;5111884;28;20044;-52
2023/02/08 04:44:36;;;;;;;11.93;7.40;;;;;;;14.23;37.78;102597.94;5111700;28;20040;-53
2023/02/08 04:47:04;;;;;;;12.00;7.60;;;;;;;14.35;37.64;102601.06;5112905;28;20048;-51
2023/02/08 04:49:33;;;;;;;11.80;6.75;;;;;;;14.48;37.58;102607.75;5115467;28;20044;-51
2023/02/08 04:52:01;;;;;;;11.73;7.57;;;;;;;14.58;37.42;102598.41;5115503;28;20077;-53
2023/02/08 04:54:29;;;;;;;12.80;7.45;;;;;;;14.67;37.43;102597.13;5115173;28;20541;-53
2023/02/08 04:56:57;;;;;;;9.75;6.57;;;;;;;14.77;37.35;102599.41;5115209;28;20046;-52
2023/02/08 04:59:27;;;;;;;11.05;7.43;;;;;;;14.87;37.18;102599.91;5115089;28;20447;-53
2023/02/08 05:01:55;;;;;;;10.05;6.93;;;;;;;14.97;37.24;102600.41;5114969;28;20105;-51
2023/02/08 05:04:23;;;;;;;11.85;7.25;;;;;;;15.10;36.94;102607.88;5115144;28;20055;-53
2023/02/08 05:06:51;;;;;;;11.45;7.00;;;;;;;15.20;36.82;102612.88;5114950;28;20043;-52
2023/02/08 05:09:19;;;;;;;11.15;7.03;;;;;;;15.30;36.76;102604.34;5115066;28;20048;-53
2023/02/08 05:11:51;;;;;;;9.10;6.70;;;;;;;15.41;36.78;102606.56;5115031;28;20140;-53
2023/02/08 05:14:19;;;;;;;11.60;6.93;;;;;;;15.51;36.60;102612.44;5114852;28;20135;-52
2023/02/08 05:16:48;;;;;;;11.93;6.93;;;;;;;15.56;36.71;102621.19;5114656;28;20071;-54
2023/02/08 05:19:16;;;;;;;10.45;7.15;;;;;;;15.58;36.32;102616.63;5114712;28;20127;-53
2023/02/08 05:21:44;;;;;;;10.23;6.88;;;;;;;15.64;36.47;102621.78;5114633;28;20067;-54
2023/02/08 05:24:12;;;;;;;10.32;6.65;;;;;;;15.65;36.42;102629.75;5114644;28;20389;-52
2023/02/08 05:26:41;;;;;;;11.63;6.85;;;;;;;15.66;36.45;102627.94;5114902;28;20469;-53
2023/02/08 05:29:10;;;;;;;9.70;6.57;;;;;;;15.68;36.49;102631.44;5114455;28;20104;-50
2023/02/08 05:31:38;;;;;;;8.93;6.32;;;;;;;15.71;36.35;102620.53;5114444;28;20062;-52
2023/02/08 05:34:08;;;;;;;9.65;6.00;;;;;;;15.73;36.41;102621.38;5114544;28;20057;-51
2023/02/08 05:36:36;;;;;;;10.43;6.70;;;;;;;15.76;36.28;102623.03;5114358;28;20118;-52
2023/02/08 05:39:04;;;;;;;9.98;6.28;;;;;;;15.77;36.39;102622.09;5114313;28;20094;-52
2023/02/08 05:41:32;;;;;;;10.52;6.88;;;;;;;15.82;36.32;102629.00;5114256;28;20050;-54
2023/02/08 05:44:00;;;;;;;12.05;6.18;;;;;;;15.89;36.30;102630.47;5114170;28;20084;-52
2023/02/08 05:46:29;;;;;;;9.00;6.15;;;;;;;15.95;36.13;102622.16;5113970;28;20083;-54
2023/02/08 05:48:57;;;;;;;10.40;6.57;;;;;;;16.00;36.12;102625.47;5114090;28;20119;-52
2023/02/08 05:51:27;;;;;;;9.52;6.43;;;;;;;16.07;36.03;102620.69;5113985;28;20485;-52
2023/02/08 05:53:55;;;;;;;8.73;5.97;;;;;;;16.12;35.90;102620.50;5095565;28;20051;-52
2023/02/08 05:56:23;;;;;;;9.13;5.90;;;;;;;16.18;35.87;102620.19;5113820;28;20039;-52
2023/02/08 05:58:51;;;;;;;9.98;6.47;;;;;;;16.25;35.97;102637.84;5113852;28;20043;-51
2023/02/08 06:01:20;;;;;;;10.10;6.47;;;;;;;16.33;35.82;102638.34;5113718;28;20048;-51
2023/02/08 06:03:48;;;;;;;9.85;6.32;;;;;;;16.40;35.70;102637.09;5113828;28;20100;-53
2023/02/08 06:06:16;;;;;;;9.13;6.13;;;;;;;16.49;35.73;102646.56;5113629;28;20047;-52
2023/02/08 06:08:46;;;;;;;9.73;5.80;;;;;;;16.54;35.60;102644.56;5113620;28;20067;-53
2023/02/08 06:11:14;;;;;;;9.60;6.20;;;;;;;16.55;35.60;102636.38;5113477;28;20073;-51
2023/02/08 06:13:42;;;;;;;9.52;6.13;;;;;;;16.55;35.59;102646.28;5113750;28;20047;-51
2023/02/08 06:16:10;;;;;;;7.93;5.63;;;;;;;16.54;35.63;102652.63;5113366;28;20071;-53
2023/02/08 06:18:39;;;;;;;9.35;5.88;;;;;;;16.48;35.60;102656.47;5113651;28;20058;-52
2023/02/08 06:21:07;;;;;;;8.63;5.65;;;;;;;16.45;35.69;102656.63;5094737;28;20422;-53
2023/02/08 06:23:35;;;;;;;8.80;6.07;;;;;;;16.37;35.63;102656.09;5113351;28;20047;-54
2023/02/08 06:26:05;;;;;;;9.18;5.80;;;;;;;16.35;35.74;102655.31;5113205;28;20043;-53
2023/02/08 06:28:33;;;;;;;10.77;6.28;;;;;;;16.30;35.76;102658.19;5113033;28;20055;-54
2023/02/08 06:31:01;;;;;;;8.82;6.38;;;;;;;16.26;35.78;102658.44;5113198;28;20051;-53
2023/02/08 06:33:30;;;;;;;8.65;5.70;;;;;;;16.21;35.69;102660.44;5113119;28;20048;-52
2023/02/08 06:35:58;;;;;;;8.77;5.88;;;;;;;16.14;35.75;102657.19;5112953;28;20101;-53
2023/02/08 06:38:26;;;;;;;10.85;6.30;;;;;;;16.09;35.79;102663.69;5112698;28;20131;-52
2023/02/08 06:40:54;;;;;;;9.20;5.90;;;;;;;16.02;36.11;102661.31;5113037;28;20089;-53
2023/02/08 06:43:23;;;;;;;8.57;5.47;;;;;;;15.96;36.37;102669.66;5112797;28;20114;-51
2023/02/08 06:45:52;;;;;;;10.25;5.97;;;;;;;15.90;36.65;102672.59;5112489;28;20047;-51
2023/02/08 06:48:20;;;;;;;12.75;6.35;;;;;;;15.84;36.88;102670.19;5112548;28;20197;-51
2023/02/08 06:50:48;;;;;;;10.95;6.00;;;;;;;15.78;37.14;102673.16;5112588;28;20093;-52
2023/02/08 06:53:16;;;;;;;9.38;6.10;;;;;;;15.73;37.07;102680.56;5112814;28;20039;-52
2023/02/08 06:55:48;;;;;;;9.30;5.55;;;;;;;15.66;36.68;102676.38;5112481;28;20066;-52
2023/02/08 06:58:16;;;;;;;9.85;5.65;;;;;;;15.62;36.85;102677.44;5112569;28;20434;-54
2023/02/08 07:00:46;;;;;;;10.57;6.00;;;;;;;15.54;36.25;102682.22;5112598;28;20075;-53
2023/02/08 07:03:16;;;;;;;10.75;6.15;;;;;;;15.51;36.25;102683.25;5112583;28;20047;-51
2023/02/08 07:05:45;;;;;;;10.38;6.18;;;;;;;15.46;35.61;102680.75;5112471;28;20068;-54
2023/02/08 07:08:34;;;;;;;13.98;6.28;;;;;;;15.39;35.08;102684.63;5112683;28;20078;-51
2023/02/08 07:11:06;;;;;;;9.98;5.97;;;;;;;15.35;35.73;102687.53;5112020;28;20044;-51
2023/02/08 07:13:35;;;;;;;10.35;5.50;;;;;;;15.28;35.43;102689.59;5112393;28;20051;-52
2023/02/08 07:16:06;;;;;;;9.52;5.80;;;;;;;15.24;36.04;102685.25;5112411;28;20090;-52
2023/02/08 07:18:34;;;;;;;11.40;5.30;;;;;;;15.20;36.35;102693.53;5112344;28;20063;-53
2023/02/08 07:21:03;;;;;;;11.52;5.68;;;;;;;15.14;36.59;102695.50;5112540;28;20127;-55
2023/02/08 07:23:32;;;;;;;10.57;6.15;;;;;;;15.09;36.69;102702.91;5093821;28;20051;-51
2023/02/08 07:26:01;;;;;;;10.95;5.85;;;;;;;15.04;36.85;102704.00;5112097;28;20046;-53
2023/02/08 07:28:30;;;;;;;9.65;5.63;;;;;;;14.99;37.20;102717.66;5111899;28;20047;-52
2023/02/08 07:30:59;;;;;;;11.27;6.50;;;;;;;14.96;36.60;102714.19;5112319;28;20051;-51
2023/02/08 07:33:28;;;;;;;9.88;5.65;;;;;;;14.93;36.66;102711.63;5111969;28;20051;-53
2023/02/08 07:35:56;;;;;;;12.25;5.70;;;;;;;14.93;37.59;102711.63;5112019;28;20062;-54
2023/02/08 07:38:25;;;;;;;9.35;5.68;;;;;;;14.94;37.92;102718.75;5112084;28;20046;-53
2023/02/08 07:41:00;;;;;;;9.10;5.55;;;;;;;14.99;38.20;102717.66;5112264;28;20126;-53
2023/02/08 07:43:28;;;;;;;11.10;5.80;;;;;;;15.03;38.48;102718.41;5112028;28;20047;-55
2023/02/08 07:45:57;;;;;;;10.52;5.60;;;;;;;15.11;38.80;102721.66;5112119;28;20093;-52
2023/02/08 07:48:25;;;;;;;13.15;6.53;;;;;;;15.18;38.60;102728.53;5093948;28;20093;-53
2023/02/08 07:50:55;;;;;;;10.77;5.45;;;;;;;15.27;38.62;102720.13;5111981;28;20040;-52
2023/02/08 07:53:23;;;;;;;11.10;5.57;;;;;;;15.37;38.67;102725.97;5111723;28;20050;-52
2023/02/08 07:55:51;;;;;;;10.77;5.30;;;;;;;15.45;38.61;102727.44;5111894;28;20511;-51
2023/02/08 07:58:19;;;;;;;9.45;4.82;;;;;;;15.56;38.59;102726.09;5112001;28;20040;-52
2023/02/08 08:00:47;;;;;;;11.10;5.38;;;;;;;15.66;38.38;102724.81;5111995;28;20051;-54
2023/02/08 08:03:15;;;;;;;10.70;5.53;;;;;;;15.77;38.27;102730.59;5112006;28;20043;-52
2023/02/08 08:05:44;;;;;;;9.60;5.30;;;;;;;15.82;38.22;102731.25;5111716;28;20043;-51
2023/02/08 08:08:13;;;;;;;11.05;5.30;;;;;;;15.87;38.05;102733.78;5111444;28;20043;-52
2023/02/08 08:10:42;;;;;;;9.35;5.65;;;;;;;15.87;38.03;102733.78;5111466;28;20054;-51
2023/02/08 08:13:10;;;;;;;10.30;5.85;;;;;;;15.88;37.87;102736.38;5111706;28;20135;-54
2023/02/08 08:15:39;;;;;;;9.25;5.50;;;;;;;15.86;37.86;102743.66;5111877;28;20043;-52
2023/02/08 08:18:07;;;;;;;9.23;5.50;;;;;;;15.84;37.92;102742.84;5111684;28;20054;-53
2023/02/08 08:20:38;;;;;;;11.02;5.80;;;;;;;15.82;37.94;102744.72;5111483;28;20060;-53
2023/02/08 08:23:06;;;;;;;11.40;5.68;;;;;;;15.78;38.10;102745.81;5114574;28;20100;-51
2023/02/08 08:25:37;;;;;;;9.95;5.40;;;;;;;15.75;38.20;102748.63;5115638;28;20051;-52
2023/02/08 08:28:05;;;;;;;8.65;5.40;;;;;;;15.72;38.35;102748.75;5115654;28;20046;-52
2023/02/08 08:30:34;;;;;;;10.00;5.60;;;;;;;15.69;38.24;102751.56;5116075;28;20048;-51
2023/02/08 08:33:03;;;;;;;9.57;5.22;;;;;;;15.65;38.20;102752.66;5115743;28;20043;-50
2023/02/08 08:35:31;;;;;;;9.82;5.35;;;;;;;15.62;38.17;102756.31;5115213;28;20047;-52
2023/02/08 08:37:59;;;;;;;10.63;5.82;;;;;;;15.58;38.15;102759.19;5115329;28;20044;-50
2023/02/08 08:40:28;;;;;;;10.75;5.60;;;;;;;15.53;38.16;102758.47;5115085;28;20130;-50
2023/02/08 08:42:58;;;;;;;9.88;5.65;;;;;;;15.50;38.24;102758.63;5115239;28;20326;-51
2023/02/08 08:45:26;;;;;;;8.50;5.25;;;;;;;15.46;38.21;102756.06;5115142;28;20480;-52
2023/02/08 08:47:54;;;;;;;10.32;5.13;;;;;;;15.43;38.13;102750.78;5114952;28;20563;-51
2023/02/08 08:50:22;;;;;;;11.73;5.35;;;;;;;15.39;38.19;102754.56;5115095;28;20484;-51
2023/02/08 08:52:50;;;;;;;9.02;5.45;;;;;;;15.35;37.66;102762.81;5114955;28;20039;-53
2023/02/08 08:55:19;;;;;;;10.35;5.72;;;;;;;15.30;37.44;102760.31;5115027;28;20419;-53
2023/02/08 08:57:47;;;;;;;11.15;5.65;;;;;;;15.29;36.94;102768.44;5114988;28;20044;-52
2023/02/08 09:00:18;;;;;;;9.85;5.63;;;;;;;15.25;37.22;102766.78;5114853;28;20518;-52
2023/02/08 09:02:46;;;;;;;9.02;4.97;;;;;;;15.24;37.13;102771.28;5115074;28;20116;-52
2023/02/08 09:05:14;;;;;;;10.23;5.57;;;;;;;15.19;37.21;102770.63;5114805;28;20043;-52
2023/02/08 09:07:42;;;;;;;10.20;5.15;;;;;;;15.18;37.08;102766.19;5114924;28;20043;-52
2023/02/08 09:10:12;;;;;;;9.65;5.70;;;;;;;15.15;37.15;102777.94;5114718;28;20067;-52
2023/02/08 09:12:41;;;;;;;8.45;5.05;;;;;;;15.10;37.16;102779.91;5114856;28;20055;-52
2023/02/08 09:15:10;;;;;;;9.57;5.32;;;;;;;15.08;37.07;102789.00;5114503;28;20044;-52
2023/02/08 09:17:40;;;;;;;8.45;5.43;;;;;;;15.06;37.19;102788.19;5114681;28;20067;-51
2023/02/08 09:20:10;;;;;;;8.40;4.90;;;;;;;15.04;37.09;102795.41;5114579;28;20480;-52
2023/02/08 09:22:40;;;;;;;10.20;5.03;;;;;;;15.01;36.87;102800.91;5114654;28;20186;-52
2023/02/08 09:25:08;;;;;;;9.18;5.00;;;;;;;14.98;36.94;102798.34;5114451;28;20482;-51
2023/02/08 09:27:37;;;;;;;8.80;5.20;;;;;;;14.96;37.12;102794.81;5114242;28;20044;-53
2023/02/08 09:30:06;;;;;;;8.55;5.18;;;;;;;14.93;37.21;102793.13;5114174;28;20048;-54
2023/02/08 09:32:35;;;;;;;8.30;4.88;;;;;;;14.92;37.40;102804.81;5113933;28;20400;-53
2023/02/08 09:35:05;;;;;;;9.35;4.90;;;;;;;14.88;37.16;102798.69;5114534;28;20431;-53
2023/02/08 09:37:34;;;;;;;9.32;5.25;;;;;;;14.86;37.34;102795.19;5114217;28;20055;-53
2023/02/08 09:40:03;;;;;;;10.00;4.85;;;;;;;14.86;37.26;102808.63;5114023;28;20058;-53
2023/02/08 09:42:41;;;;;;;8.48;4.88;;;;;;;14.86;37.11;102799.66;5114042;28;20108;-52
2023/02/08 09:45:35;;;;;;;7.75;5.00;;;;;;;14.83;37.30;102802.47;5114206;28;20381;-52
2023/02/08 09:48:14;;;;;;;9.85;5.35;;;;;;;14.83;37.22;102795.28;5114129;28;20050;-53
2023/02/08 09:50:46;;;;;;;8.45;4.70;;;;;;;14.82;36.92;102801.59;5113728;28;20051;-53
2023/02/08 09:53:20;;;;;;;7.45;4.47;;;;;;;14.82;36.82;102798.03;5114037;28;20123;-53
2023/02/08 09:55:51;;;;;;;9.35;5.32;;;;;;;14.82;36.91;102795.34;5113924;28;20092;-51
2023/02/08 09:58:29;;;;;;;8.07;4.90;;;;;;;14.81;37.08;102789.09;5113890;28;20044;-50
2023/02/08 10:00:58;;;;;;;11.00;5.13;;;;;;;14.83;37.13;102797.97;5113803;28;20545;-52
2023/02/08 10:03:33;;;;;;;7.30;4.93;;;;;;;14.82;36.46;102792.66;5113939;28;20063;-52
2023/02/08 10:06:07;;;;;;;7.93;5.18;;;;;;;14.84;36.46;102798.84;5113832;28;20050;-51
2023/02/08 10:08:36;;;;;;;7.70;4.82;;;;;;;14.86;36.81;102792.50;5113603;28;20130;-53
2023/02/08 10:11:20;;;;;;;8.40;4.90;;;;;;;14.86;37.01;102794.28;5113568;28;20416;-53
2023/02/08 10:14:04;;;;;;;6.53;4.40;;;;;;;14.89;36.94;102803.13;5113515;28;20051;-52
2023/02/08 10:16:50;;;;;;;8.07;4.90;;;;;;;14.91;37.01;102794.13;5113580;28;20122;-53
2023/02/08 10:19:32;;;;;;;7.78;4.43;;;;;;;14.94;37.01;102794.00;5113367;28;20039;-54
2023/02/08 10:22:14;;;;;;;8.25;4.60;;;;;;;14.96;37.25;102797.50;5113446;28;20047;-52
2023/02/08 10:25:00;;;;;;;8.23;4.85;;;;;;;14.98;37.17;102803.72;5113476;28;20109;-52
2023/02/08 10:27:39;;;;;;;7.78;4.88;;;;;;;14.97;37.04;102794.78;5113305;28;20043;-50
2023/02/08 10:30:18;;;;;;;7.20;4.53;;;;;;;15.00;37.10;102796.47;5113172;28;20068;-51
2023/02/08 10:32:58;;;;;;;7.68;4.53;;;;;;;15.03;37.11;102785.59;5113449;28;20044;-53
2023/02/08 10:35:35;;;;;;;8.10;4.63;;;;;;;15.06;36.88;102785.50;5113057;28;20043;-54
2023/02/08 10:38:23;;;;;;;7.70;4.63;;;;;;;15.08;36.78;102786.31;5112838;28;20047;-52
2023/02/08 10:40:55;;;;;;;8.23;4.80;;;;;;;15.12;36.73;102788.78;5113017;28;20491;-52
2023/02/08 10:43:32;;;;;;;10.73;4.70;;;;;;;15.16;36.54;102792.25;5113060;28;20408;-51
2023/02/08 10:46:09;;;;;;;6.45;4.32;;;;;;;15.15;36.26;102798.53;5112238;28;20050;-52
2023/02/08 10:48:47;;;;;;;7.35;4.43;;;;;;;15.17;36.34;102796.69;5112898;28;20465;-50
2023/02/08 10:51:17;;;;;;;8.05;4.70;;;;;;;15.19;36.24;102789.44;5112779;28;20067;-54
2023/02/08 10:53:47;;;;;;;7.57;4.53;;;;;;;15.19;36.31;102781.38;5112663;28;20047;-53
2023/02/08 10:56:34;;;;;;;6.82;4.32;;;;;;;15.24;36.10;102787.44;5112732;28;20050;-51
2023/02/08 10:59:10;;;;;;;8.55;5.18;;;;;;;15.26;35.95;102774.81;5112633;28;20044;-53
2023/02/08 11:01:38;;;;;;;7.97;4.55;;;;;;;15.29;35.83;102769.31;5112579;28;20046;-52
2023/02/08 11:04:09;;;;;;;7.32;4.47;;;;;;;15.33;35.99;102775.44;5112525;28;20051;-52
2023/02/08 11:06:38;;;;;;;6.97;4.47;;;;;;;15.33;35.87;102784.38;5112495;28;20515;-52
2023/02/08 11:09:21;;;;;;;7.15;4.78;;;;;;;15.37;35.87;102777.94;5112482;28;20398;-52
2023/02/08 11:11:51;;;;;;;8.23;4.53;;;;;;;15.39;35.84;102780.56;5112470;28;20050;-53
2023/02/08 11:14:23;;;;;;;6.90;4.68;;;;;;;15.41;36.05;102784.06;5112137;28;20043;-51
2023/02/08 11:16:57;;;;;;;6.60;4.18;;;;;;;15.43;36.00;102783.06;5112392;28;20122;-52
2023/02/08 11:19:38;;;;;;;8.32;4.93;;;;;;;15.45;35.93;102786.59;5112016;28;20464;-54
2023/02/08 11:22:06;;;;;;;7.68;5.00;;;;;;;15.49;35.83;102783.78;5112112;28;20202;-51
2023/02/08 11:24:40;;;;;;;7.07;4.32;;;;;;;15.51;35.89;102792.66;5112023;28;20051;-54
2023/02/08 11:27:17;;;;;;;7.53;4.75;;;;;;;15.52;35.67;102786.31;5112076;28;20132;-51
2023/02/08 11:29:46;;;;;;;9.18;4.95;;;;;;;15.56;35.72;102790.66;5112104;28;20446;-51
2023/02/08 11:32:18;;;;;;;6.78;4.32;;;;;;;15.58;35.70;102786.09;5112124;28;20048;-50
2023/02/08 11:34:47;;;;;;;7.82;4.72;;;;;;;15.59;35.70;102787.84;5112081;28;20047;-51
2023/02/08 11:37:18;;;;;;;7.70;4.95;;;;;;;15.62;35.71;102777.84;5112109;28;20051;-49
2023/02/08 11:39:54;;;;;;;6.32;4.03;;;;;;;15.66;35.88;102775.91;5111890;28;20100;-54
2023/02/08 11:42:25;;;;;;;6.57;4.43;;;;;;;15.65;35.81;102772.34;5112078;28;20043;-51